Kristen D — WTK9856 — position and weather

sailwx.info

Track history (hours):
 
Tides and Currents Weather Stations Pressure Air Temp Water Temp Dewpoint Dewpoint Depression Visibility Wind Speed Wind Dir Waves Ship Positions

Kristen D

Owner: PLAUNT TRANSPORTATION CO INC, CHEBOYGAN, MI. More information available from US FCC via Universal Licensing System and Coast Guard Vessel Documentation Center.

Last reported at 2017-Oct-11 21:42 UTC. Time now 2017-Oct-18 09:39 UTC.
Position N 45°39' W 084°28'.

Length 30 m.

Type: Passenger vessel. MMSI: 367311560.

Date/timePositionNaut miles runAvg speedWind from/ knotsBaromVisibWave heightAir tempDewpointWater temp
2017-Oct-11 21:42N 45°39' W 084°28'2 8.0
2017-Oct-11 21:30N 45°40' W 084°27'3 6.3
2017-Oct-11 20:58N 45°44' W 084°27'2 4.3
2017-Oct-11 20:30N 45°42' W 084°26'3 3.7
2017-Oct-11 19:39N 45°39' W 084°28'1 7.7
2017-Oct-11 19:30N 45°40' W 084°27'4 2.9
2017-Oct-11 18:13N 45°44' W 084°27'0 0.0
2017-Oct-11 17:52N 45°44' W 084°27'0 0.0
2017-Oct-11 17:22N 45°44' W 084°27'2 5.0
2017-Oct-11 16:58N 45°42' W 084°26'3 0.1
2017-Oct-10 21:32N 45°39' W 084°28'0 7.4
2017-Oct-10 21:30N 45°39' W 084°28'4 8.4
2017-Oct-10 21:00N 45°44' W 084°27'1 2.6
2017-Oct-10 20:30N 45°42' W 084°27'3 3.7
2017-Oct-10 19:35N 45°39' W 084°28'1 7.7
2017-Oct-10 19:25N 45°40' W 084°28'4 1.6
2017-Oct-10 17:14N 45°44' W 084°27'1 5.6
2017-Oct-10 17:00N 45°42' W 084°27'3 0.9
2017-Oct-10 13:59N 45°40' W 084°28'4 3.0
2017-Oct-10 12:41N 45°44' W 084°27'1 6.5
2017-Oct-10 12:31N 45°42' W 084°27'4 0.2
2017-Oct-09 21:41N 45°39' W 084°28'2 8.1
2017-Oct-09 21:28N 45°41' W 084°27'3 4.2
2017-Oct-09 20:47N 45°44' W 084°27'2 4.4
2017-Oct-09 20:26N 45°42' W 084°27'3 4.1
2017-Oct-09 19:37N 45°39' W 084°28'1 7.1
2017-Oct-09 19:30N 45°40' W 084°28'4 1.7
2017-Oct-09 17:10N 45°44' W 084°27'2 8.4
2017-Oct-09 16:54N 45°41' W 084°27'3 1.0
2017-Oct-09 14:08N 45°39' W 084°28'2 7.7
2017-Oct-09 13:53N 45°41' W 084°27'2 1.7
2017-Oct-09 12:32N 45°43' W 084°27'0 8.8
2017-Oct-09 12:29N 45°42' W 084°27'3 0.2
2017-Oct-08 20:33N 45°39' W 084°28'0 7.9
2017-Oct-08 20:30N 45°40' W 084°28'4 8.2
2017-Oct-08 20:00N 45°44' W 084°27'0 0.0
2017-Oct-08 19:18N 45°44' W 084°27'1 3.5
2017-Oct-08 19:00N 45°43' W 084°27'4 2.6
2017-Oct-08 17:37N 45°39' W 084°28'1 7.7
2017-Oct-08 17:29N 45°40' W 084°28'4 5.1
2017-Oct-08 16:46N 45°44' W 084°27'0 0.1
2017-Oct-08 16:06N 45°44' W 084°27'1 8.5
2017-Oct-08 16:00N 45°43' W 084°27'4 4.7
2017-Oct-08 15:09N 45°39' W 084°28'1 6.8
2017-Oct-08 15:00N 45°40' W 084°28'4 3.3
2017-Oct-08 13:49N 45°44' W 084°27'1 4.0
2017-Oct-08 13:29N 45°42' W 084°27'3 3.2
2017-Oct-08 12:32N 45°39' W 084°28'0 8.5
2017-Oct-08 12:30N 45°40' W 084°28'4 0.3
2017-Oct-07 23:01N 45°43' W 084°27'0 8.9
2017-Oct-07 22:59N 45°43' W 084°27'4 3.2
2017-Oct-07 21:38N 45°39' W 084°28'1 7.2
2017-Oct-07 21:30N 45°40' W 084°28'4 6.2
2017-Oct-07 20:52N 45°44' W 084°27'1 3.2
2017-Oct-07 20:30N 45°42' W 084°27'3 3.3
2017-Oct-07 19:32N 45°39' W 084°28'0 8.7
2017-Oct-07 19:29N 45°40' W 084°28'4 1.7
2017-Oct-07 17:11N 45°44' W 084°27'2 7.4
2017-Oct-07 16:58N 45°42' W 084°27'3 0.9
2017-Oct-07 14:00N 45°39' W 084°28'4 3.1
2017-Oct-07 12:41N 45°44' W 084°27'1 5.2
2017-Oct-07 12:30N 45°43' W 084°27'4 0.4
2017-Oct-07 01:27N 45°39' W 084°28'4 8.2
2017-Oct-07 00:59N 45°43' W 084°27'0 0.8
2017-Oct-07 00:30N 45°42' W 084°27'3 1.1
2017-Oct-06 21:33N 45°39' W 084°28'0 7.4
2017-Oct-06 21:30N 45°40' W 084°28'4 8.0
2017-Oct-06 20:59N 45°44' W 084°27'2 3.2
2017-Oct-06 20:28N 45°42' W 084°27'3 4.2
2017-Oct-06 19:40N 45°39' W 084°28'1 6.4
2017-Oct-06 19:30N 45°40' W 084°28'4 1.7
2017-Oct-06 17:12N 45°44' W 084°27'2 7.2
2017-Oct-06 16:57N 45°42' W 084°27'2 2.7
2017-Oct-06 16:01N 45°39' W 084°28'0 8.9
2017-Oct-06 15:59N 45°40' W 084°28'4 7.5
2017-Oct-06 15:27N 45°44' W 084°27'4 8.1
2017-Oct-06 14:58N 45°40' W 084°28'1 1.1
2017-Oct-06 14:08N 45°39' W 084°28'1 6.9
2017-Oct-06 14:00N 45°40' W 084°28'4 3.2
2017-Oct-06 12:43N 45°44' W 084°27'2 6.7
2017-Oct-06 12:28N 45°42' W 084°27'2 0.1
2017-Oct-05 21:29N 45°40' W 084°28'4 8.2
2017-Oct-05 21:00N 45°44' W 084°27'2 3.3
2017-Oct-05 20:25N 45°42' W 084°27'3 3.1
2017-Oct-05 19:34N 45°39' W 084°28'1 7.9
2017-Oct-05 19:28N 45°40' W 084°28'4 1.7
2017-Oct-05 17:13N 45°44' W 084°27'2 6.4
2017-Oct-05 16:57N 45°42' W 084°27'3 1.2
2017-Oct-05 14:08N 45°39' W 084°28'1 7.4
2017-Oct-05 13:58N 45°40' W 084°28'4 7.2
2017-Oct-05 13:27N 45°44' W 084°27'0 0.0
2017-Oct-05 12:44N 45°44' W 084°27'1 6.1
2017-Oct-05 12:30N 45°42' W 084°27'4 0.2
2017-Oct-04 21:40N 45°39' W 084°28'1 6.8
2017-Oct-04 21:30N 45°40' W 084°28'4 6.9
2017-Oct-04 20:56N 45°44' W 084°27'2 3.7
2017-Oct-04 20:26N 45°42' W 084°27'3 3.5
2017-Oct-04 19:36N 45°39' W 084°28'1 6.9
2017-Oct-04 19:30N 45°39' W 084°28'4 8.3
2017-Oct-04 19:00N 45°44' W 084°27'0 0.0
2017-Oct-04 17:21N 45°44' W 084°27'2 4.5
2017-Oct-04 16:59N 45°42' W 084°27'3 1.0
2017-Oct-04 14:02N 45°39' W 084°28'1 7.8
2017-Oct-04 13:58N 45°40' W 084°28'4 3.2
2017-Oct-04 12:42N 45°44' W 084°27'2 6.2
2017-Oct-04 12:27N 45°42' W 084°27'3 0.2
2017-Oct-03 21:37N 45°39' W 084°28'1 6.6
2017-Oct-03 21:30N 45°39' W 084°28'4 8.0
2017-Oct-03 20:59N 45°44' W 084°27'1 2.7
2017-Oct-03 20:30N 45°42' W 084°27'3 4.0
2017-Oct-03 19:38N 45°39' W 084°28'1 7.2
2017-Oct-03 19:30N 45°40' W 084°28'4 7.5
2017-Oct-03 19:00N 45°44' W 084°27'0 0.0
2017-Oct-03 17:09N 45°44' W 084°27'1 8.2
2017-Oct-03 17:00N 45°42' W 084°27'2 0.8
2017-Oct-03 13:58N 45°40' W 084°27'  
Track history (hours):
 
Tides and Currents Weather Stations Pressure Air Temp Water Temp Dewpoint Dewpoint Depression Visibility Wind Speed Wind Dir Waves Ship Positions

Kristen D

Owner: PLAUNT TRANSPORTATION CO INC, CHEBOYGAN, MI. More information available from US FCC via Universal Licensing System and Coast Guard Vessel Documentation Center.

Last reported at 2017-Oct-11 21:42 UTC. Time now 2017-Oct-18 09:39 UTC.
Position N 45°39' W 084°28'.

Length 30 m.

Type: Passenger vessel. MMSI: 367311560.

Date/timePositionNaut miles runAvg speedWind from/ knotsBaromVisibWave heightAir tempDewpointWater temp
2017-Oct-11 21:42N 45°39' W 084°28'2 8.0
2017-Oct-11 21:30N 45°40' W 084°27'3 6.3
2017-Oct-11 20:58N 45°44' W 084°27'2 4.3
2017-Oct-11 20:30N 45°42' W 084°26'3 3.7
2017-Oct-11 19:39N 45°39' W 084°28'1 7.7
2017-Oct-11 19:30N 45°40' W 084°27'4 2.9
2017-Oct-11 18:13N 45°44' W 084°27'0 0.0
2017-Oct-11 17:52N 45°44' W 084°27'0 0.0
2017-Oct-11 17:22N 45°44' W 084°27'2 5.0
2017-Oct-11 16:58N 45°42' W 084°26'3 0.1
2017-Oct-10 21:32N 45°39' W 084°28'0 7.4
2017-Oct-10 21:30N 45°39' W 084°28'4 8.4
2017-Oct-10 21:00N 45°44' W 084°27'1 2.6
2017-Oct-10 20:30N 45°42' W 084°27'3 3.7
2017-Oct-10 19:35N 45°39' W 084°28'1 7.7
2017-Oct-10 19:25N 45°40' W 084°28'4 1.6
2017-Oct-10 17:14N 45°44' W 084°27'1 5.6
2017-Oct-10 17:00N 45°42' W 084°27'3 0.9
2017-Oct-10 13:59N 45°40' W 084°28'4 3.0
2017-Oct-10 12:41N 45°44' W 084°27'1 6.5
2017-Oct-10 12:31N 45°42' W 084°27'4 0.2
2017-Oct-09 21:41N 45°39' W 084°28'2 8.1
2017-Oct-09 21:28N 45°41' W 084°27'3 4.2
2017-Oct-09 20:47N 45°44' W 084°27'2 4.4
2017-Oct-09 20:26N 45°42' W 084°27'3 4.1
2017-Oct-09 19:37N 45°39' W 084°28'1 7.1
2017-Oct-09 19:30N 45°40' W 084°28'4 1.7
2017-Oct-09 17:10N 45°44' W 084°27'2 8.4
2017-Oct-09 16:54N 45°41' W 084°27'3 1.0
2017-Oct-09 14:08N 45°39' W 084°28'2 7.7
2017-Oct-09 13:53N 45°41' W 084°27'2 1.7
2017-Oct-09 12:32N 45°43' W 084°27'0 8.8
2017-Oct-09 12:29N 45°42' W 084°27'3 0.2
2017-Oct-08 20:33N 45°39' W 084°28'0 7.9
2017-Oct-08 20:30N 45°40' W 084°28'4 8.2
2017-Oct-08 20:00N 45°44' W 084°27'0 0.0
2017-Oct-08 19:18N 45°44' W 084°27'1 3.5
2017-Oct-08 19:00N 45°43' W 084°27'4 2.6
2017-Oct-08 17:37N 45°39' W 084°28'1 7.7
2017-Oct-08 17:29N 45°40' W 084°28'4 5.1
2017-Oct-08 16:46N 45°44' W 084°27'0 0.1
2017-Oct-08 16:06N 45°44' W 084°27'1 8.5
2017-Oct-08 16:00N 45°43' W 084°27'4 4.7
2017-Oct-08 15:09N 45°39' W 084°28'1 6.8
2017-Oct-08 15:00N 45°40' W 084°28'4 3.3
2017-Oct-08 13:49N 45°44' W 084°27'1 4.0
2017-Oct-08 13:29N 45°42' W 084°27'3 3.2
2017-Oct-08 12:32N 45°39' W 084°28'0 8.5
2017-Oct-08 12:30N 45°40' W 084°28'4 0.3
2017-Oct-07 23:01N 45°43' W 084°27'0 8.9
2017-Oct-07 22:59N 45°43' W 084°27'4 3.2
2017-Oct-07 21:38N 45°39' W 084°28'1 7.2
2017-Oct-07 21:30N 45°40' W 084°28'4 6.2
2017-Oct-07 20:52N 45°44' W 084°27'1 3.2
2017-Oct-07 20:30N 45°42' W 084°27'3 3.3
2017-Oct-07 19:32N 45°39' W 084°28'0 8.7
2017-Oct-07 19:29N 45°40' W 084°28'4 1.7
2017-Oct-07 17:11N 45°44' W 084°27'2 7.4
2017-Oct-07 16:58N 45°42' W 084°27'3 0.9
2017-Oct-07 14:00N 45°39' W 084°28'4 3.1
2017-Oct-07 12:41N 45°44' W 084°27'1 5.2
2017-Oct-07 12:30N 45°43' W 084°27'4 0.4
2017-Oct-07 01:27N 45°39' W 084°28'4 8.2
2017-Oct-07 00:59N 45°43' W 084°27'0 0.8
2017-Oct-07 00:30N 45°42' W 084°27'3 1.1
2017-Oct-06 21:33N 45°39' W 084°28'0 7.4
2017-Oct-06 21:30N 45°40' W 084°28'4 8.0
2017-Oct-06 20:59N 45°44' W 084°27'2 3.2
2017-Oct-06 20:28N 45°42' W 084°27'3 4.2
2017-Oct-06 19:40N 45°39' W 084°28'1 6.4
2017-Oct-06 19:30N 45°40' W 084°28'4 1.7
2017-Oct-06 17:12N 45°44' W 084°27'2 7.2
2017-Oct-06 16:57N 45°42' W 084°27'2 2.7
2017-Oct-06 16:01N 45°39' W 084°28'0 8.9
2017-Oct-06 15:59N 45°40' W 084°28'4 7.5
2017-Oct-06 15:27N 45°44' W 084°27'4 8.1
2017-Oct-06 14:58N 45°40' W 084°28'1 1.1
2017-Oct-06 14:08N 45°39' W 084°28'1 6.9
2017-Oct-06 14:00N 45°40' W 084°28'4 3.2
2017-Oct-06 12:43N 45°44' W 084°27'2 6.7
2017-Oct-06 12:28N 45°42' W 084°27'2 0.1
2017-Oct-05 21:29N 45°40' W 084°28'4 8.2
2017-Oct-05 21:00N 45°44' W 084°27'2 3.3
2017-Oct-05 20:25N 45°42' W 084°27'3 3.1
2017-Oct-05 19:34N 45°39' W 084°28'1 7.9
2017-Oct-05 19:28N 45°40' W 084°28'4 1.7
2017-Oct-05 17:13N 45°44' W 084°27'2 6.4
2017-Oct-05 16:57N 45°42' W 084°27'3 1.2
2017-Oct-05 14:08N 45°39' W 084°28'1 7.4
2017-Oct-05 13:58N 45°40' W 084°28'4 7.2
2017-Oct-05 13:27N 45°44' W 084°27'0 0.0
2017-Oct-05 12:44N 45°44' W 084°27'1 6.1
2017-Oct-05 12:30N 45°42' W 084°27'4 0.2
2017-Oct-04 21:40N 45°39' W 084°28'1 6.8
2017-Oct-04 21:30N 45°40' W 084°28'4 6.9
2017-Oct-04 20:56N 45°44' W 084°27'2 3.7
2017-Oct-04 20:26N 45°42' W 084°27'3 3.5
2017-Oct-04 19:36N 45°39' W 084°28'1 6.9
2017-Oct-04 19:30N 45°39' W 084°28'4 8.3
2017-Oct-04 19:00N 45°44' W 084°27'0 0.0
2017-Oct-04 17:21N 45°44' W 084°27'2 4.5
2017-Oct-04 16:59N 45°42' W 084°27'3 1.0
2017-Oct-04 14:02N 45°39' W 084°28'1 7.8
2017-Oct-04 13:58N 45°40' W 084°28'4 3.2
2017-Oct-04 12:42N 45°44' W 084°27'2 6.2
2017-Oct-04 12:27N 45°42' W 084°27'3 0.2
2017-Oct-03 21:37N 45°39' W 084°28'1 6.6
2017-Oct-03 21:30N 45°39' W 084°28'4 8.0
2017-Oct-03 20:59N 45°44' W 084°27'1 2.7
2017-Oct-03 20:30N 45°42' W 084°27'3 4.0
2017-Oct-03 19:38N 45°39' W 084°28'1 7.2
2017-Oct-03 19:30N 45°40' W 084°28'4 7.5
2017-Oct-03 19:00N 45°44' W 084°27'0 0.0
2017-Oct-03 17:09N 45°44' W 084°27'1 8.2
2017-Oct-03 17:00N 45°42' W 084°27'2 0.8
2017-Oct-03 13:58N 45°40' W 084°27'  

Dump ship's entire track history